createdAt,value
2018-07-04T00:06:20.722Z,84.40
2018-07-04T00:09:35.969Z,84.60
2018-07-04T00:12:51.166Z,85.10
2018-07-04T00:16:06.314Z,85.10
2018-07-04T00:19:21.511Z,85.40
2018-07-04T00:22:36.695Z,85.60
2018-07-04T00:25:51.810Z,85.70
2018-07-04T00:29:07.099Z,85.80
2018-07-04T00:35:31.493Z,85.30
2018-07-04T00:38:46.801Z,85.30
2018-07-04T00:42:01.900Z,85.30
2018-07-04T00:45:17.048Z,85.00
2018-07-04T00:48:32.285Z,85.00
2018-07-04T00:51:47.339Z,85.00
2018-07-04T00:55:02.590Z,85.20
2018-07-04T00:58:17.909Z,85.40
2018-07-04T01:01:32.903Z,85.50
2018-07-04T01:04:48.093Z,85.60
2018-07-04T01:08:03.339Z,85.50
2018-07-04T01:11:18.455Z,85.40
2018-07-04T01:14:33.788Z,85.40
2018-07-04T01:21:03.525Z,86.60
2018-07-04T01:24:18.798Z,86.40
2018-07-04T01:27:34.099Z,86.30
2018-07-04T01:30:49.297Z,86.50
2018-07-04T01:34:04.683Z,86.60
2018-07-04T01:37:20.035Z,86.90
2018-07-04T01:40:35.201Z,87.30
2018-07-04T01:43:50.446Z,88.60
2018-07-04T01:50:14.803Z,89.50
2018-07-04T01:53:29.985Z,89.80
2018-07-04T01:56:45.357Z,90.20
2018-07-04T02:00:00.631Z,90.30
2018-07-04T02:03:15.780Z,90.20
2018-07-04T02:06:31.150Z,90.00
2018-07-04T02:09:46.510Z,90.10
2018-07-04T02:19:19.963Z,89.50
2018-07-04T02:22:35.222Z,90.30
2018-07-04T02:25:50.393Z,90.10
2018-07-04T02:32:14.631Z,91.20
2018-07-04T02:35:29.890Z,91.80
2018-07-04T02:38:45.171Z,91.70
2018-07-04T02:42:00.554Z,92.50
2018-07-04T02:45:15.814Z,92.90
2018-07-04T02:48:30.778Z,93.10
2018-07-04T02:51:46.173Z,93.70
2018-07-04T02:55:01.355Z,93.90
2018-07-04T02:58:16.811Z,94.10
2018-07-04T03:01:32.058Z,94.70
2018-07-04T03:07:56.623Z,94.50
2018-07-04T03:11:11.830Z,94.70
2018-07-04T03:14:27.006Z,94.60
2018-07-04T03:17:42.195Z,94.60
2018-07-04T03:20:57.452Z,95.20
2018-07-04T03:24:12.602Z,94.60
2018-07-04T03:27:27.921Z,93.70
2018-07-04T03:30:43.110Z,93.50
2018-07-04T03:33:58.285Z,93.60
2018-07-04T03:37:13.578Z,91.70
2018-07-04T03:40:28.938Z,90.40
2018-07-04T03:46:53.371Z,86.00
2018-07-04T03:50:08.555Z,86.40
2018-07-04T03:53:23.716Z,82.60
2018-07-04T03:56:39.145Z,79.80
2018-07-04T03:59:54.398Z,78.00
2018-07-04T04:03:09.730Z,78.60
2018-07-04T04:06:24.797Z,79.00
2018-07-04T04:09:40.199Z,78.70
2018-07-04T04:12:55.551Z,77.30
2018-07-04T04:16:11.108Z,75.70
2018-07-04T04:19:32.277Z,74.20
2018-07-04T04:22:47.593Z,73.60
2018-07-04T04:26:02.589Z,72.90
2018-07-04T04:29:17.871Z,72.60
2018-07-04T04:32:33.162Z,72.30
2018-07-04T04:35:48.337Z,69.30
2018-07-04T04:39:03.931Z,65.90
2018-07-04T04:42:19.255Z,66.40
2018-07-04T04:48:43.505Z,69.50
2018-07-04T04:51:58.671Z,67.30
2018-07-04T04:55:13.915Z,63.90
2018-07-04T04:58:29.122Z,63.80
2018-07-04T05:01:44.270Z,59.80
2018-07-04T05:04:59.429Z,60.40
2018-07-04T05:08:14.840Z,61.30
2018-07-04T05:11:30.061Z,64.30
2018-07-04T05:17:55.291Z,61.40
2018-07-04T05:21:10.378Z,60.90
2018-07-04T05:24:25.539Z,62.30
2018-07-04T05:27:40.738Z,67.20
2018-07-04T05:30:56.184Z,65.70
2018-07-04T05:34:11.457Z,62.30
2018-07-04T05:37:26.724Z,59.80
2018-07-04T05:40:42.259Z,59.20
2018-07-04T05:43:57.487Z,55.50
2018-07-04T05:47:12.571Z,55.10
2018-07-04T05:50:27.746Z,54.70
2018-07-04T05:53:42.937Z,54.00
2018-07-04T05:56:58.195Z,52.90
2018-07-04T06:00:13.423Z,52.10
2018-07-04T06:03:28.712Z,51.10
2018-07-04T06:06:43.685Z,51.70
2018-07-04T06:13:08.160Z,53.20
2018-07-04T06:16:23.376Z,52.00
2018-07-04T06:22:47.836Z,51.90
2018-07-04T06:26:03.045Z,51.50
2018-07-04T06:29:18.251Z,52.70
2018-07-04T06:32:33.327Z,51.60
2018-07-04T06:35:48.475Z,52.50
2018-07-04T06:41:54.176Z,52.20
2018-07-04T06:44:56.940Z,52.00
2018-07-04T06:47:59.703Z,52.50
2018-07-04T06:54:05.438Z,53.40
2018-07-04T06:57:08.141Z,53.90
2018-07-04T07:03:26.458Z,54.00
2018-07-04T07:06:41.542Z,54.60
2018-07-04T07:09:56.774Z,54.20
2018-07-04T07:13:11.743Z,52.80
2018-07-04T07:16:27.050Z,54.10
2018-07-04T07:19:42.379Z,53.60
2018-07-04T07:22:57.706Z,53.20
2018-07-04T07:26:13.108Z,54.00
2018-07-04T07:29:28.329Z,53.80
2018-07-04T07:32:43.975Z,52.10
2018-07-04T07:35:59.293Z,51.40
2018-07-04T07:39:14.463Z,51.40
2018-07-04T07:42:29.817Z,51.20
2018-07-04T07:45:44.974Z,52.00
2018-07-04T07:49:00.161Z,52.20
2018-07-04T07:52:15.297Z,52.40
2018-07-04T07:55:30.541Z,51.20
2018-07-04T07:58:45.585Z,50.90
2018-07-04T08:02:00.840Z,51.00
2018-07-04T08:05:16.077Z,50.50
2018-07-04T08:08:31.471Z,50.00
2018-07-04T08:11:46.638Z,50.90
2018-07-04T08:15:02.052Z,51.40
2018-07-04T08:18:17.172Z,52.50
2018-07-04T08:21:32.291Z,53.70
2018-07-04T08:27:56.771Z,52.60
2018-07-04T08:31:12.036Z,52.00
2018-07-04T08:34:27.436Z,51.90
2018-07-04T08:37:42.675Z,50.20
2018-07-04T08:40:57.907Z,50.40
2018-07-04T08:44:12.969Z,50.50
2018-07-04T08:47:28.255Z,49.50
2018-07-04T08:50:43.631Z,49.70
2018-07-04T08:53:58.738Z,50.40
2018-07-04T08:57:14.051Z,50.50
2018-07-04T09:00:29.675Z,50.70
2018-07-04T09:03:44.893Z,51.00
2018-07-04T09:07:00.124Z,52.80
2018-07-04T09:10:15.200Z,53.50
2018-07-04T09:13:30.513Z,53.30
2018-07-04T09:16:45.807Z,53.80
2018-07-04T09:20:00.995Z,53.80
2018-07-04T09:23:16.267Z,53.50
2018-07-04T09:29:40.698Z,52.50
2018-07-04T09:32:56.413Z,52.80
2018-07-04T09:36:11.682Z,51.80
2018-07-04T09:39:26.831Z,50.10
2018-07-04T09:42:41.981Z,50.70
2018-07-04T09:49:06.646Z,48.70
2018-07-04T09:52:22.189Z,50.00
2018-07-04T09:55:37.483Z,49.60
2018-07-04T09:58:52.680Z,49.20
2018-07-04T10:05:16.724Z,50.40
2018-07-04T10:08:31.894Z,50.30
2018-07-04T10:14:56.730Z,51.40
2018-07-04T10:18:12.054Z,50.90
2018-07-04T10:21:27.260Z,50.20
2018-07-04T10:24:42.618Z,49.50
2018-07-04T10:27:58.037Z,49.70
2018-07-04T10:31:13.137Z,49.30
2018-07-04T10:34:28.464Z,49.50
2018-07-04T10:37:43.483Z,48.90
2018-07-04T10:40:58.507Z,49.40
2018-07-04T10:44:13.728Z,49.80
2018-07-04T10:47:28.976Z,49.00
2018-07-04T10:50:44.174Z,49.00
2018-07-04T10:53:59.396Z,47.30
2018-07-04T10:57:14.772Z,46.90
2018-07-04T11:00:30.033Z,47.30
2018-07-04T11:03:45.425Z,47.30
2018-07-04T11:07:00.625Z,46.80
2018-07-04T11:10:15.756Z,47.00
2018-07-04T11:16:40.114Z,47.80
2018-07-04T11:19:55.453Z,46.20
2018-07-04T11:23:10.605Z,46.20
2018-07-04T11:29:35.182Z,46.10
2018-07-04T11:32:50.366Z,46.00
2018-07-04T11:36:05.784Z,45.80
2018-07-04T11:39:21.083Z,44.80
2018-07-04T11:42:36.404Z,44.00
2018-07-04T11:45:51.826Z,43.30
2018-07-04T11:51:57.537Z,43.50
2018-07-04T11:55:00.310Z,44.30
2018-07-04T11:58:03.112Z,44.80
2018-07-04T12:01:05.861Z,45.10
2018-07-04T12:04:21.194Z,44.00
2018-07-04T12:10:26.965Z,42.10
2018-07-04T12:16:32.697Z,42.20
2018-07-04T12:19:35.477Z,42.10
2018-07-04T12:22:38.254Z,42.70
2018-07-04T12:25:41.858Z,43.70
2018-07-04T12:28:44.693Z,43.80
2018-07-04T12:31:47.413Z,44.20
2018-07-04T12:34:50.214Z,43.80
2018-07-04T12:37:53.040Z,43.60
2018-07-04T12:40:55.896Z,42.70
2018-07-04T12:43:58.653Z,41.10
2018-07-04T12:47:01.435Z,42.10
2018-07-04T12:50:16.868Z,42.90
2018-07-04T12:53:19.648Z,42.30
2018-07-04T12:56:34.806Z,42.00
2018-07-04T12:59:50.047Z,41.40
2018-07-04T13:03:05.312Z,41.00
2018-07-04T13:06:20.697Z,40.90
2018-07-04T13:09:35.873Z,41.50
2018-07-04T13:12:50.947Z,42.30
2018-07-04T13:16:06.250Z,43.10
2018-07-04T13:19:22.040Z,42.40
2018-07-04T13:22:37.178Z,43.20
2018-07-04T13:25:52.605Z,43.30
2018-07-04T13:29:07.839Z,42.60
2018-07-04T13:32:23.073Z,42.80
2018-07-04T13:35:38.189Z,43.10
2018-07-04T13:38:53.500Z,43.20
2018-07-04T13:42:08.921Z,43.10
2018-07-04T13:45:24.179Z,44.40
2018-07-04T13:48:40.448Z,45.00
2018-07-04T13:55:04.758Z,44.60
2018-07-04T13:58:20.132Z,45.00
2018-07-04T14:01:35.282Z,44.80
2018-07-04T14:04:50.269Z,44.60
2018-07-04T14:11:14.640Z,45.20
2018-07-04T14:14:30.897Z,45.30
2018-07-04T14:17:46.251Z,45.50
2018-07-04T14:21:01.447Z,45.20
2018-07-04T14:30:34.701Z,45.10
2018-07-04T14:33:49.870Z,45.80
2018-07-04T14:37:05.123Z,46.10
2018-07-04T14:40:20.422Z,45.30
2018-07-04T14:43:35.622Z,45.20
2018-07-04T14:46:50.834Z,45.00
2018-07-04T14:50:05.939Z,45.10
2018-07-04T14:53:21.497Z,44.80
2018-07-04T14:56:37.001Z,45.40
2018-07-04T14:59:52.493Z,45.70
2018-07-04T15:03:07.734Z,45.70
2018-07-04T15:06:22.940Z,45.60
2018-07-04T15:09:38.435Z,44.90
2018-07-04T15:12:53.655Z,45.00
2018-07-04T15:16:09.613Z,44.60
2018-07-04T15:19:24.050Z,44.90
2018-07-04T15:22:39.469Z,45.30
2018-07-04T15:29:03.907Z,45.30
2018-07-04T15:32:19.154Z,44.80
2018-07-04T15:35:34.588Z,45.80
2018-07-04T15:38:49.985Z,45.50
2018-07-04T15:42:05.252Z,45.70
2018-07-04T15:45:20.468Z,46.20
2018-07-04T15:48:36.078Z,45.90
2018-07-04T15:51:51.307Z,45.30
2018-07-04T15:55:06.528Z,45.50
2018-07-04T15:58:21.813Z,46.00
2018-07-04T16:01:37.080Z,45.30
2018-07-04T16:04:52.350Z,45.40
2018-07-04T16:08:07.683Z,45.90
2018-07-04T16:11:22.852Z,45.60
2018-07-04T16:17:47.161Z,45.30
2018-07-04T16:21:02.498Z,45.70
2018-07-04T16:24:17.833Z,46.10
2018-07-04T16:27:32.919Z,46.20
2018-07-04T16:30:48.411Z,45.80
2018-07-04T16:34:03.739Z,45.80
2018-07-04T16:37:18.761Z,45.40
2018-07-04T16:40:34.147Z,45.80
2018-07-04T16:43:49.494Z,45.50
2018-07-04T16:47:04.536Z,45.40
2018-07-04T16:53:28.936Z,45.70
2018-07-04T16:59:53.268Z,45.80
2018-07-04T17:03:08.617Z,45.50
2018-07-04T17:06:23.708Z,45.40
2018-07-04T17:09:39.091Z,46.10
2018-07-04T17:12:54.358Z,45.60
2018-07-04T17:16:09.546Z,45.80
2018-07-04T17:19:24.675Z,46.50
2018-07-04T17:25:49.425Z,47.10
2018-07-04T17:29:04.498Z,44.50
2018-07-04T17:32:19.681Z,45.60
2018-07-04T17:35:34.914Z,44.90
2018-07-04T17:38:49.994Z,44.40
2018-07-04T17:45:14.435Z,45.40
2018-07-04T17:48:29.667Z,44.40
2018-07-04T17:51:44.993Z,44.20
2018-07-04T17:55:00.553Z,44.70
2018-07-04T17:58:15.707Z,44.40
2018-07-04T18:01:30.969Z,45.40
2018-07-04T18:04:46.257Z,44.50
2018-07-04T18:08:01.228Z,45.90
2018-07-04T18:11:16.474Z,45.00
2018-07-04T18:14:31.700Z,46.40
2018-07-04T18:17:46.974Z,45.20
2018-07-04T18:21:07.786Z,45.30
2018-07-04T18:24:23.129Z,45.20
2018-07-04T18:27:38.334Z,46.10
2018-07-04T18:30:53.527Z,46.60
2018-07-04T18:34:08.744Z,46.80
2018-07-04T18:37:24.155Z,46.30
2018-07-04T18:40:39.461Z,47.10
2018-07-04T18:43:54.869Z,46.90
2018-07-04T18:47:10.183Z,47.70
2018-07-04T18:50:25.223Z,48.20
2018-07-04T18:53:40.684Z,48.10
2018-07-04T18:56:55.999Z,49.20
2018-07-04T19:00:11.308Z,49.20
2018-07-04T19:03:26.596Z,49.50
2018-07-04T19:06:41.869Z,50.20
2018-07-04T19:09:56.939Z,50.40
2018-07-04T19:13:12.229Z,50.70
2018-07-04T19:22:45.802Z,51.90
2018-07-04T19:26:01.197Z,52.10
2018-07-04T19:29:16.254Z,52.70
2018-07-04T19:32:31.531Z,53.50
2018-07-04T19:35:47.738Z,53.80
2018-07-04T19:42:12.350Z,54.00
2018-07-04T19:45:27.405Z,54.70
2018-07-04T19:48:42.730Z,54.80
2018-07-04T19:51:57.734Z,54.90
2018-07-04T19:55:12.941Z,55.10
2018-07-04T19:58:28.186Z,55.70
2018-07-04T20:01:43.358Z,55.70
2018-07-04T20:04:58.490Z,56.40
2018-07-04T20:08:13.707Z,56.30
2018-07-04T20:11:28.831Z,56.70
2018-07-04T20:14:44.029Z,56.80
2018-07-04T20:17:59.209Z,56.80
2018-07-04T20:21:14.525Z,56.90
2018-07-04T20:24:29.670Z,56.70
2018-07-04T20:27:45.229Z,56.80
2018-07-04T20:31:00.262Z,57.20
2018-07-04T20:34:15.535Z,57.60
2018-07-04T20:37:30.726Z,57.10
2018-07-04T20:40:45.894Z,57.30
2018-07-04T20:44:01.188Z,57.10
2018-07-04T20:50:25.413Z,56.90
2018-07-04T20:53:40.710Z,56.60
2018-07-04T20:56:56.001Z,56.80
2018-07-04T21:00:11.223Z,57.00
2018-07-04T21:03:26.444Z,57.50
2018-07-04T21:06:41.905Z,58.10
2018-07-04T21:09:57.041Z,59.00
2018-07-04T21:16:21.388Z,59.60
2018-07-04T21:19:36.889Z,59.30
2018-07-04T21:22:52.167Z,60.10
2018-07-04T21:26:07.309Z,59.80
2018-07-04T21:29:22.633Z,60.90
2018-07-04T21:32:38.021Z,59.80
2018-07-04T22:20:22.142Z,60.30
2018-07-04T22:23:37.295Z,67.40
2018-07-04T22:26:52.526Z,67.30
2018-07-04T22:30:07.776Z,68.50
2018-07-04T22:33:23.411Z,68.50
2018-07-04T22:36:38.722Z,68.10
2018-07-04T22:39:53.961Z,68.90
2018-07-04T22:43:09.414Z,69.30
2018-07-04T22:46:24.779Z,68.90
2018-07-04T22:49:40.033Z,66.70
2018-07-04T22:52:55.222Z,66.50
2018-07-04T22:56:10.591Z,66.40
2018-07-04T22:59:25.894Z,67.60
2018-07-04T23:02:41.682Z,66.60
2018-07-04T23:05:56.933Z,67.50
2018-07-04T23:09:12.297Z,67.60
2018-07-04T23:12:27.468Z,67.20
2018-07-04T23:15:42.783Z,68.20
2018-07-04T23:18:58.150Z,67.10
2018-07-04T23:22:13.115Z,69.50
2018-07-04T23:25:28.705Z,70.00
2018-07-04T23:28:43.890Z,69.90
2018-07-04T23:31:59.117Z,69.40
2018-07-04T23:35:14.319Z,70.00
2018-07-04T23:38:29.584Z,69.90
2018-07-04T23:41:45.114Z,71.10
2018-07-04T23:45:00.362Z,72.60
2018-07-04T23:48:15.623Z,72.70
2018-07-04T23:51:30.798Z,71.30
2018-07-04T23:54:46.080Z,70.90
2018-07-04T23:58:01.360Z,72.30
